Weather at Carriel Sur Airport

Public forecast

Using degrees Celsius for public forecast. Weather courtesy of forecast.io.

Current aviation weather report (METAR) for Carriel Sur Airport

2022/11/27 09:00 (retrieved 30 minutes ago)

SCIE 270900Z VRB02KT 5000 BR OVC003 12/12 Q1013

Aviation forecast (TAF) for Carriel Sur Airport

2022/11/27 06:00 (retrieved 3 hours ago)

TAF SCIE 270400Z 2706/2806 01010KT 2500 BR OVC003 TX18/2719Z TN12/2710Z TEMPO 2707/2712 VRB02KT 0500 FG OVC002 BECMG 2714/2716 33010KT 9999 OVC009 BECMG 2719/2721 03012KT 6000 OVC006 BECMG 2800/2802 4000 BR OVC003